Time;durP1;ratioP1;P1;durP2;ratioP2;P2;SDS_P1;SDS_P2;PMS_P1;PMS_P2;Temp;Humidity;BMP_temperature;BMP_pressure;BME280_temperature;BME280_humidity;BME280_pressure;Samples;Min_cycle;Max_cycle;Signal;HPM_P1;HPM_P2
2024/04/07 00:02:04;;;;;;;;;;;;;;;16.21;100.00;100765.78;4990263;28;1227;-79
2024/04/07 00:04:29;;;;;;;;;;;;;;;16.23;100.00;100774.44;4990623;28;1976;-77
2024/04/07 00:06:54;;;;;;;;;;;;;;;16.22;100.00;100783.63;4972382;28;1121;-78
2024/04/07 00:09:20;;;;;;;;;;;;;;;16.22;100.00;100802.56;4973546;28;1066;-76
2024/04/07 00:11:45;;;;;;;;;;;;;;;16.22;100.00;100799.03;4970843;28;1288;-77
2024/04/07 00:14:10;;;;;;;;;;;;;;;16.21;100.00;100797.41;4947647;28;1265;-77
2024/04/07 00:16:36;;;;;;;;;;;;;;;16.18;100.00;100802.25;4978743;28;1311;-78
2024/04/07 00:19:01;;;;;;;;;;;;;;;16.20;100.00;100826.34;4991628;28;1062;-75
2024/04/07 00:21:27;;;;;;;;;;;;;;;16.20;100.00;100818.22;4987542;28;1910;-76
2024/04/07 00:23:53;;;;;;;;;;;;;;;16.18;100.00;100823.91;4989000;28;1019;-77
2024/04/07 00:26:19;;;;;;;;;;;;;;;16.14;100.00;100836.28;4981597;28;1983;-75
2024/04/07 00:28:44;;;;;;;;;;;;;;;16.12;100.00;100837.59;4995253;28;1070;-75
2024/04/07 00:31:09;;;;;;;;;;;;;;;16.11;100.00;100825.97;4975127;28;1695;-76
2024/04/07 00:33:35;;;;;;;;;;;;;;;16.11;100.00;100823.28;4975009;28;1632;-77
2024/04/07 00:36:00;;;;;;;;;;;;;;;16.12;100.00;100821.38;4989349;28;1310;-77
2024/04/07 00:38:26;;;;;;;;;;;;;;;16.12;100.00;100834.91;4998936;28;1029;-75
2024/04/07 00:40:54;;;;;;;;;;;;;;;16.13;100.00;100837.34;4986888;28;1279;-75
2024/04/07 00:43:20;;;;;;;;;;;;;;;16.11;100.00;100836.81;4982089;28;1054;-76
2024/04/07 00:45:45;;;;;;;;;;;;;;;16.09;100.00;100835.41;4994817;28;1922;-75
2024/04/07 00:48:11;;;;;;;;;;;;;;;16.10;100.00;100842.47;4991737;28;1070;-77
2024/04/07 00:50:36;;;;;;;;;;;;;;;16.10;100.00;100853.28;4991809;28;1269;-76
2024/04/07 00:53:01;;;;;;;;;;;;;;;16.10;100.00;100869.53;4988846;28;1334;-77
2024/04/07 00:55:28;;;;;;;;;;;;;;;16.08;100.00;100864.38;4979150;28;941;-77
2024/04/07 00:57:53;;;;;;;;;;;;;;;16.10;100.00;100880.34;4985880;28;1307;-79
2024/04/07 01:00:18;;;;;;;;;;;;;;;16.09;100.00;100889.50;4981324;28;1221;-77
2024/04/07 01:02:44;;;;;;;;;;;;;;;16.10;100.00;100905.50;4990656;28;1049;-78
2024/04/07 01:05:09;;;;;;;;;;;;;;;16.09;100.00;100903.03;4972828;28;1979;-77
2024/04/07 01:07:35;;;;;;;;;;;;;;;16.14;100.00;100893.09;4990374;28;1171;-78
2024/04/07 01:10:00;;;;;;;;;;;;;;;16.12;100.00;100886.31;4979659;28;963;-76
2024/04/07 01:12:25;;;;;;;;;;;;;;;16.09;100.00;100866.00;4999862;28;1177;-77
2024/04/07 01:14:50;;;;;;;;;;;;;;;16.11;100.00;100892.81;5008165;28;1014;-77
2024/04/07 01:17:16;;;;;;;;;;;;;;;16.10;100.00;100889.25;4995618;28;1062;-79
2024/04/07 01:19:42;;;;;;;;;;;;;;;16.11;100.00;100919.84;4977738;28;1249;-76
2024/04/07 01:22:08;;;;;;;;;;;;;;;16.12;100.00;100954.75;4978849;28;1224;-76
2024/04/07 01:24:33;;;;;;;;;;;;;;;16.11;100.00;100960.44;4987746;28;1906;-75
2024/04/07 01:26:58;;;;;;;;;;;;;;;16.10;100.00;100947.97;4966098;28;1177;-76
2024/04/07 01:29:23;;;;;;;;;;;;;;;16.08;100.00;100950.91;4999001;28;1205;-76
2024/04/07 01:31:49;;;;;;;;;;;;;;;16.07;100.00;100957.38;4995693;28;1058;-76
2024/04/07 01:34:14;;;;;;;;;;;;;;;16.10;100.00;100956.06;4985870;28;1144;-76
2024/04/07 01:36:39;;;;;;;;;;;;;;;16.06;100.00;100960.34;5007973;28;985;-76
2024/04/07 01:39:07;;;;;;;;;;;;;;;16.05;100.00;100983.03;4996036;28;1494;-76
2024/04/07 01:41:33;;;;;;;;;;;;;;;16.07;100.00;100980.91;4992585;28;1219;-76
2024/04/07 01:43:58;;;;;;;;;;;;;;;16.04;100.00;100966.00;4967775;28;1197;-79
2024/04/07 01:46:24;;;;;;;;;;;;;;;16.04;100.00;100971.41;4993542;28;1934;-76
2024/04/07 01:48:49;;;;;;;;;;;;;;;16.02;100.00;100962.75;4975586;28;1120;-76
2024/04/07 01:51:14;;;;;;;;;;;;;;;16.03;100.00;100998.72;4988748;28;1088;-77
2024/04/07 01:53:40;;;;;;;;;;;;;;;16.00;100.00;101000.84;4974861;28;1189;-76
2024/04/07 01:56:06;;;;;;;;;;;;;;;16.00;100.00;101006.25;4990780;28;1073;-77
2024/04/07 01:58:32;;;;;;;;;;;;;;;16.01;100.00;101026.00;4975948;28;1516;-76
2024/04/07 02:00:58;;;;;;;;;;;;;;;15.99;100.00;101018.16;4977528;28;1141;-78
2024/04/07 02:03:23;;;;;;;;;;;;;;;15.98;100.00;101030.03;4973867;28;1263;-76
2024/04/07 02:05:48;;;;;;;;;;;;;;;15.98;100.00;101040.03;5000724;28;1910;-75
2024/04/07 02:08:15;;;;;;;;;;;;;;;15.98;100.00;101067.88;4976669;28;1223;-77
2024/04/07 02:10:47;;;;;;;;;;;;;;;16.00;100.00;101079.28;4975733;28;1283;-75
2024/04/07 02:13:13;;;;;;;;;;;;;;;15.99;100.00;101080.34;5014870;28;1203;-76
2024/04/07 02:15:38;;;;;;;;;;;;;;;15.96;100.00;101091.66;4986404;28;1097;-77
2024/04/07 02:18:03;;;;;;;;;;;;;;;15.97;100.00;101096.00;4984998;28;1263;-80
2024/04/07 02:20:29;;;;;;;;;;;;;;;15.96;100.00;101110.59;4980828;28;1108;-78
2024/04/07 02:22:54;;;;;;;;;;;;;;;15.96;100.00;101124.13;4984660;28;1168;-77
2024/04/07 02:25:20;;;;;;;;;;;;;;;15.95;100.00;101124.38;4966771;28;1968;-75
2024/04/07 02:27:46;;;;;;;;;;;;;;;15.94;100.00;101128.97;4975298;28;1295;-77
2024/04/07 02:30:12;;;;;;;;;;;;;;;15.95;100.00;101148.69;4991387;28;1047;-77
2024/04/07 02:32:37;;;;;;;;;;;;;;;15.93;100.00;101143.53;4989439;28;1180;-76
2024/04/07 02:35:03;;;;;;;;;;;;;;;15.94;100.00;101122.72;4981963;28;1288;-76
2024/04/07 02:37:29;;;;;;;;;;;;;;;15.95;100.00;101152.22;4984077;28;1326;-76
2024/04/07 02:39:54;;;;;;;;;;;;;;;15.94;100.00;101150.59;4979615;28;1329;-76
2024/04/07 02:42:19;;;;;;;;;;;;;;;15.93;100.00;101156.22;4984189;28;1045;-78
2024/04/07 02:50:13;;;;;;;;;;;;;;;15.90;100.00;101165.66;4999351;28;1126;-79
2024/04/07 02:52:38;;;;;;;;;;;;;;;15.89;100.00;101153.19;4968992;28;973;-77
2024/04/07 02:55:04;;;;;;;;;;;;;;;15.87;100.00;101154.50;4989201;28;1229;-78
2024/04/07 02:57:29;;;;;;;;;;;;;;;15.88;100.00;101145.34;4969577;28;1187;-77
2024/04/07 02:59:54;;;;;;;;;;;;;;;15.87;100.00;101157.22;4971295;28;1240;-77
2024/04/07 03:02:20;;;;;;;;;;;;;;;15.85;100.00;101153.94;4992302;28;995;-78
2024/04/07 03:04:49;;;;;;;;;;;;;;;15.86;100.00;101150.19;4960823;28;1990;-77
2024/04/07 03:07:14;;;;;;;;;;;;;;;15.86;100.00;101158.28;4990971;28;1080;-78
2024/04/07 03:09:39;;;;;;;;;;;;;;;15.85;100.00;101153.94;4991130;28;1268;-79
2024/04/07 03:12:05;;;;;;;;;;;;;;;15.87;100.00;101178.84;4981846;28;1180;-77
2024/04/07 03:14:30;;;;;;;;;;;;;;;15.85;100.00;101175.56;4984076;28;1349;-78
2024/04/07 03:16:58;;;;;;;;;;;;;;;15.85;100.00;101187.19;5002769;28;1369;-75
2024/04/07 03:19:23;;;;;;;;;;;;;;;15.84;100.00;101204.50;4991483;28;1230;-77
2024/04/07 03:21:48;;;;;;;;;;;;;;;15.80;100.00;101197.94;4971070;28;1497;-76
2024/04/07 03:24:13;;;;;;;;;;;;;;;15.85;100.00;101198.00;5006516;28;978;-76
2024/04/07 03:26:39;;;;;;;;;;;;;;;15.80;100.00;101201.44;4997796;28;1914;-76
2024/04/07 03:29:05;;;;;;;;;;;;;;;15.86;100.00;101205.06;4987849;28;1176;-74
2024/04/07 03:31:31;;;;;;;;;;;;;;;15.85;100.00;101197.19;4970924;28;1332;-77
2024/04/07 03:33:56;;;;;;;;;;;;;;;15.83;100.00;101192.03;4967441;28;1444;-75
2024/04/07 03:36:21;;;;;;;;;;;;;;;15.81;100.00;101180.66;4996255;28;1382;-77
2024/04/07 03:38:48;;;;;;;;;;;;;;;15.82;100.00;101193.94;4975080;28;1298;-76
2024/04/07 03:41:13;;;;;;;;;;;;;;;15.85;100.00;101187.19;4985058;28;1213;-76
2024/04/07 03:43:38;;;;;;;;;;;;;;;15.79;100.00;101183.56;4975369;28;1204;-76
2024/04/07 03:46:04;;;;;;;;;;;;;;;15.80;100.00;101200.63;5008138;28;1922;-76
2024/04/07 03:48:30;;;;;;;;;;;;;;;15.77;100.00;101195.69;4987056;28;1336;-78
2024/04/07 03:50:56;;;;;;;;;;;;;;;15.73;100.00;101184.53;4972548;28;1399;-76
2024/04/07 03:53:22;;;;;;;;;;;;;;;15.75;100.00;101173.47;4997999;28;1060;-78
2024/04/07 03:55:47;;;;;;;;;;;;;;;15.79;100.00;101172.75;5010553;28;1006;-75
2024/04/07 03:58:12;;;;;;;;;;;;;;;15.81;100.00;101188.78;4962503;28;1278;-76
2024/04/07 04:00:38;;;;;;;;;;;;;;;15.85;100.00;101180.97;4973511;28;1258;-76
2024/04/07 04:03:04;;;;;;;;;;;;;;;15.81;100.00;101184.19;4988934;28;1094;-77
2024/04/07 04:05:31;;;;;;;;;;;;;;;15.79;100.00;101172.75;4986166;28;2373;-76
2024/04/07 04:07:57;;;;;;;;;;;;;;;15.79;100.00;101153.03;4979760;28;1220;-76
2024/04/07 04:10:22;;;;;;;;;;;;;;;15.77;100.00;101150.53;4989874;28;1147;-75
2024/04/07 04:12:48;;;;;;;;;;;;;;;15.74;100.00;101161.03;5014346;28;1191;-76
2024/04/07 04:15:13;;;;;;;;;;;;;;;15.77;100.00;101149.72;4997453;28;1309;-77
2024/04/07 04:17:38;;;;;;;;;;;;;;;15.73;100.00;101152.06;5010762;28;1153;-77
2024/04/07 04:20:04;;;;;;;;;;;;;;;15.76;100.00;101159.69;5012760;28;1057;-77
2024/04/07 04:22:29;;;;;;;;;;;;;;;15.74;100.00;101166.44;4997878;28;1128;-78
2024/04/07 04:24:58;;;;;;;;;;;;;;;15.73;100.00;101151.28;4979577;28;1918;-77
2024/04/07 04:27:23;;;;;;;;;;;;;;;15.73;100.00;101151.28;4996404;28;1094;-78
2024/04/07 04:29:50;;;;;;;;;;;;;;;15.72;100.00;101157.72;4981055;28;1208;-78
2024/04/07 04:32:15;;;;;;;;;;;;;;;15.71;100.00;101161.50;4975961;28;1616;-77
2024/04/07 04:34:41;;;;;;;;;;;;;;;15.70;100.00;101173.38;4990974;28;1556;-78
2024/04/07 04:37:06;;;;;;;;;;;;;;;15.72;100.00;101171.25;4964767;28;1232;-76
2024/04/07 04:39:32;;;;;;;;;;;;;;;15.68;100.00;101167.38;4977664;28;1316;-77
2024/04/07 04:41:57;;;;;;;;;;;;;;;15.70;100.00;101168.78;4996626;28;1039;-77
2024/04/07 04:44:22;;;;;;;;;;;;;;;15.70;100.00;101166.09;4976947;28;1910;-77
2024/04/07 04:46:48;;;;;;;;;;;;;;;15.69;100.00;101155.50;4975006;28;1146;-77
2024/04/07 04:49:16;;;;;;;;;;;;;;;15.64;100.00;101157.06;4981661;28;1342;-78
2024/04/07 04:51:41;;;;;;;;;;;;;;;15.64;100.00;101148.13;4977698;28;1382;-75
2024/04/07 04:54:07;;;;;;;;;;;;;;;15.64;100.00;101151.66;4979265;28;1488;-77
2024/04/07 04:56:32;;;;;;;;;;;;;;;15.63;100.00;101158.13;4992393;28;1040;-78
2024/04/07 04:58:58;;;;;;;;;;;;;;;15.65;100.00;101161.41;4980774;28;1122;-75
2024/04/07 05:01:23;;;;;;;;;;;;;;;15.64;100.00;101162.47;4975747;28;1161;-76
2024/04/07 05:03:48;;;;;;;;;;;;;;;15.63;100.00;101168.94;4985715;28;1183;-77
2024/04/07 05:06:16;;;;;;;;;;;;;;;15.60;100.00;101180.25;4990471;28;1902;-77
2024/04/07 05:08:41;;;;;;;;;;;;;;;15.61;100.00;101172.94;4979117;28;1223;-78
2024/04/07 05:11:06;;;;;;;;;;;;;;;15.60;100.00;101174.84;5011391;28;1454;-75
2024/04/07 05:13:32;;;;;;;;;;;;;;;15.60;100.00;101176.72;4991319;28;1310;-76
2024/04/07 05:15:57;;;;;;;;;;;;;;;15.57;100.00;101178.03;4992320;28;1401;-78
2024/04/07 05:18:22;;;;;;;;;;;;;;;15.58;100.00;101189.66;4977209;28;1274;-78
2024/04/07 05:20:49;;;;;;;;;;;;;;;15.57;100.00;101202.38;4991790;28;1429;-77
2024/04/07 05:23:14;;;;;;;;;;;;;;;15.56;100.00;101205.31;4991159;28;1274;-76
2024/04/07 05:25:40;;;;;;;;;;;;;;;15.58;100.00;101209.38;4995450;28;1969;-77
2024/04/07 05:28:05;;;;;;;;;;;;;;;15.58;100.00;101230.19;4973991;28;1510;-77
2024/04/07 05:30:30;;;;;;;;;;;;;;;15.59;100.00;101224.56;4976484;28;1176;-79
2024/04/07 05:32:56;;;;;;;;;;;;;;;15.57;100.00;101221.28;4987944;28;1133;-78
2024/04/07 05:35:21;;;;;;;;;;;;;;;15.56;100.00;101208.81;4990950;28;1199;-78
2024/04/07 05:37:47;;;;;;;;;;;;;;;15.55;100.00;101217.97;4978373;28;1094;-77
2024/04/07 05:40:12;;;;;;;;;;;;;;;15.56;100.00;101224.22;4981481;28;1097;-75
2024/04/07 05:42:37;;;;;;;;;;;;;;;15.53;100.00;101222.81;4974416;28;1244;-78
2024/04/07 05:45:03;;;;;;;;;;;;;;;15.53;100.00;101240.91;4990486;28;1922;-75
2024/04/07 05:47:28;;;;;;;;;;;;;;;15.52;100.00;101245.50;4983203;28;1252;-76
2024/04/07 05:49:54;;;;;;;;;;;;;;;15.56;100.00;101254.78;4974590;28;1399;-77
2024/04/07 05:52:19;;;;;;;;;;;;;;;15.54;100.00;101258.75;4984733;28;1070;-77
2024/04/07 05:54:44;;;;;;;;;;;;;;;15.54;100.00;101259.56;4971326;28;1388;-76
2024/04/07 05:57:10;;;;;;;;;;;;;;;15.54;100.00;101267.69;4991851;28;1278;-77
2024/04/07 05:59:35;;;;;;;;;;;;;;;15.52;100.00;101261.72;4973821;28;1168;-76
2024/04/07 06:02:00;;;;;;;;;;;;;;;15.53;100.00;101270.63;4994253;28;1361;-75
2024/04/07 06:04:25;;;;;;;;;;;;;;;15.52;100.00;101267.13;4973792;28;1972;-79
2024/04/07 06:06:51;;;;;;;;;;;;;;;15.50;100.00;101274.66;4991467;28;1122;-77
2024/04/07 06:09:16;;;;;;;;;;;;;;;15.49;100.00;101273.00;4984722;28;1118;-76
2024/04/07 06:11:41;;;;;;;;;;;;;;;15.49;100.00;101275.69;4999368;28;1184;-77
2024/04/07 06:14:07;;;;;;;;;;;;;;;15.52;100.00;101277.91;4996047;28;1637;-78
2024/04/07 06:16:33;;;;;;;;;;;;;;;15.50;100.00;101279.22;5002090;28;1104;-77
2024/04/07 06:18:58;;;;;;;;;;;;;;;15.46;100.00;101293.22;4970216;28;1249;-75
2024/04/07 06:21:23;;;;;;;;;;;;;;;15.43;100.00;101288.28;4987491;28;1124;-76
2024/04/07 06:23:48;;;;;;;;;;;;;;;15.43;100.00;101285.56;4978280;28;1303;-76
2024/04/07 06:26:14;;;;;;;;;;;;;;;15.44;100.00;101294.53;4992257;28;1978;-77
2024/04/07 06:28:39;;;;;;;;;;;;;;;15.46;100.00;101298.63;4976350;28;1258;-76
2024/04/07 06:31:05;;;;;;;;;;;;;;;15.44;100.00;101297.22;4976378;28;1339;-76
2024/04/07 06:33:30;;;;;;;;;;;;;;;15.47;100.00;101299.44;4975302;28;1360;-77
2024/04/07 06:35:56;;;;;;;;;;;;;;;15.42;100.00;101296.63;4986352;28;1109;-76
2024/04/07 06:38:22;;;;;;;;;;;;;;;15.42;100.00;101307.44;4973357;28;1189;-76
2024/04/07 06:40:47;;;;;;;;;;;;;;;15.46;100.00;101303.22;4987051;28;1504;-76
2024/04/07 06:43:12;;;;;;;;;;;;;;;15.51;100.00;101308.69;4991279;28;1245;-75
2024/04/07 06:45:38;;;;;;;;;;;;;;;15.51;100.00;101300.59;4981444;28;1919;-76
2024/04/07 06:48:04;;;;;;;;;;;;;;;15.44;100.00;101299.94;4974748;28;1291;-77
2024/04/07 06:50:31;;;;;;;;;;;;;;;15.47;100.00;101307.56;4980280;28;1173;-76
2024/04/07 06:52:56;;;;;;;;;;;;;;;15.45;100.00;101304.25;4968637;28;1118;-75
2024/04/07 06:55:21;;;;;;;;;;;;;;;15.48;100.00;101298.38;4968540;28;1283;-74
2024/04/07 06:57:46;;;;;;;;;;;;;;;15.46;100.00;101301.31;4968598;28;1058;-74
2024/04/07 07:00:15;;;;;;;;;;;;;;;15.47;100.00;101300.25;4986897;28;1751;-74
2024/04/07 07:02:40;;;;;;;;;;;;;;;15.51;100.00;101307.91;4977893;28;914;-75
2024/04/07 07:05:06;;;;;;;;;;;;;;;15.54;100.00;101304.72;4976089;28;1914;-75
2024/04/07 07:07:31;;;;;;;;;;;;;;;15.54;100.00;101294.72;4974168;28;1262;-74
2024/04/07 07:09:57;;;;;;;;;;;;;;;15.55;100.00;101304.47;4988252;28;1452;-74
2024/04/07 07:12:22;;;;;;;;;;;;;;;15.54;100.00;101315.53;4975237;28;1298;-75
2024/04/07 07:14:48;;;;;;;;;;;;;;;15.58;100.00;101305.88;4975091;28;1305;-76
2024/04/07 07:17:13;;;;;;;;;;;;;;;15.51;100.00;101319.50;4989176;28;1095;-76
2024/04/07 07:19:38;;;;;;;;;;;;;;;15.52;100.00;101323.06;4970543;28;1362;-75
2024/04/07 07:22:04;;;;;;;;;;;;;;;15.51;100.00;101327.63;4973613;28;1373;-77
2024/04/07 07:24:29;;;;;;;;;;;;;;;15.53;100.00;101332.78;4989616;28;1910;-76
2024/04/07 07:26:54;;;;;;;;;;;;;;;15.54;100.00;101329.03;4973494;28;1405;-77
2024/04/07 07:29:19;;;;;;;;;;;;;;;15.54;100.00;101332.56;4975917;28;1313;-75
2024/04/07 07:31:45;;;;;;;;;;;;;;;15.57;100.00;101326.69;4974946;28;1157;-75
2024/04/07 07:34:10;;;;;;;;;;;;;;;15.57;100.00;101347.47;4987244;28;1138;-75
2024/04/07 07:36:35;;;;;;;;;;;;;;;15.58;100.00;101354.53;5011405;28;1193;-76
2024/04/07 07:39:01;;;;;;;;;;;;;;;15.60;100.00;101355.97;4985779;28;1069;-76
2024/04/07 07:41:26;;;;;;;;;;;;;;;15.58;100.00;101358.06;5008091;28;1228;-77
2024/04/07 07:43:51;;;;;;;;;;;;;;;15.60;100.00;101347.84;4991752;28;1216;-76
2024/04/07 07:46:17;;;;;;;;;;;;;;;15.58;100.00;101354.53;4975332;28;1970;-77
2024/04/07 07:48:42;;;;;;;;;;;;;;;15.62;100.00;101359.22;4955534;28;1462;-74
2024/04/07 07:51:10;;;;;;;;;;;;;;;15.64;100.00;101359.81;4975008;28;1465;-75
2024/04/07 07:53:39;;;;;;;;;;;;;;;15.68;100.00;101365.56;4972548;28;1305;-74
2024/04/07 07:56:05;;;;;;;;;;;;;;;15.71;100.00;101369.69;4986688;28;1242;-74
2024/04/07 07:58:31;;;;;;;;;;;;;;;15.78;100.00;101368.53;4987324;28;1092;-73
2024/04/07 08:00:57;;;;;;;;;;;;;;;15.88;100.00;101377.91;4970696;28;1251;-73
2024/04/07 08:03:24;;;;;;;;;;;;;;;15.97;100.00;101388.13;4986087;28;1293;-73
2024/04/07 08:05:49;;;;;;;;;;;;;;;16.09;100.00;101376.44;4973352;28;1973;-73
2024/04/07 08:08:14;;;;;;;;;;;;;;;16.16;100.00;101382.53;4976811;28;1148;-74
2024/04/07 08:10:40;;;;;;;;;;;;;;;16.20;100.00;101388.28;4961270;28;1435;-75
2024/04/07 08:13:05;;;;;;;;;;;;;;;16.24;100.00;101381.31;4989130;28;1327;-74
2024/04/07 08:15:31;;;;;;;;;;;;;;;16.27;100.00;101370.00;4973312;28;1619;-75
2024/04/07 08:17:56;;;;;;;;;;;;;;;16.32;100.00;101391.75;4989246;28;1350;-74
2024/04/07 08:20:22;;;;;;;;;;;;;;;16.32;100.00;101387.16;4982650;28;1292;-75
2024/04/07 08:22:47;;;;;;;;;;;;;;;16.43;100.00;101388.16;4972358;28;1337;-75
2024/04/07 08:25:12;;;;;;;;;;;;;;;16.47;100.00;101378.50;4990892;28;1906;-76
2024/04/07 08:27:38;;;;;;;;;;;;;;;16.38;100.00;101381.84;4971367;28;1207;-75
2024/04/07 08:30:03;;;;;;;;;;;;;;;16.40;100.00;101393.25;4985521;28;1240;-75
2024/04/07 08:32:29;;;;;;;;;;;;;;;16.45;100.00;101390.63;4970189;28;1361;-75
2024/04/07 08:34:54;;;;;;;;;;;;;;;16.45;100.00;101387.91;4961632;28;1320;-74
2024/04/07 08:37:20;;;;;;;;;;;;;;;16.44;100.00;101384.41;4968354;28;1373;-75
2024/04/07 08:39:46;;;;;;;;;;;;;;;16.45;100.00;101387.91;4983904;28;1080;-75
2024/04/07 08:42:13;;;;;;;;;;;;;;;16.41;100.00;101389.50;4954566;28;1347;-75
2024/04/07 08:44:38;;;;;;;;;;;;;;;16.43;100.00;101384.66;4972862;28;1906;-74
2024/04/07 08:47:07;;;;;;;;;;;;;;;16.43;100.00;101384.66;4939886;28;1341;-75
2024/04/07 08:49:33;;;;;;;;;;;;;;;16.47;100.00;101385.81;4970730;28;1393;-75
2024/04/07 08:51:58;;;;;;;;;;;;;;;16.47;100.00;101383.09;4955042;28;1223;-74
2024/04/07 08:54:24;;;;;;;;;;;;;;;16.49;100.00;101381.81;4954777;28;1403;-75
2024/04/07 08:56:49;;;;;;;;;;;;;;;16.51;100.00;101390.50;4953090;28;1254;-74
2024/04/07 08:59:14;;;;;;;;;;;;;;;16.56;100.00;101386.25;4949582;28;1470;-73
2024/04/07 09:01:43;;;;;;;;;;;;;;;16.61;100.00;101384.44;4952537;28;1737;-74
2024/04/07 09:04:08;;;;;;;;;;;;;;;16.63;100.00;101397.75;4965758;28;1370;-74
2024/04/07 09:06:34;;;;;;;;;;;;;;;16.63;100.00;101392.31;4949037;28;1958;-74
2024/04/07 09:08:59;;;;;;;;;;;;;;;16.65;100.00;101393.69;4963529;28;1359;-75
2024/04/07 09:11:25;;;;;;;;;;;;;;;16.63;100.00;101400.44;4964300;28;1347;-74
2024/04/07 09:13:50;;;;;;;;;;;;;;;16.63;100.00;101390.44;4937409;28;1401;-75
2024/04/07 09:16:15;;;;;;;;;;;;;;;16.66;100.00;101405.38;4952788;28;1685;-74
2024/04/07 09:18:40;;;;;;;;;;;;;;;16.67;100.00;101407.00;4949175;28;1680;-74
2024/04/07 09:21:19;;;;;;;;;;;;;;;16.67;100.00;101401.59;4965221;28;1315;-74
2024/04/07 09:23:46;;;;;;;;;;;;;;;16.72;100.00;101396.28;4951842;28;1503;-75
2024/04/07 09:26:12;;;;;;;;;;;;;;;16.74;100.00;101402.25;4961603;28;1952;-75
2024/04/07 09:28:37;;;;;;;;;;;;;;;16.72;100.00;101396.28;4951478;28;1495;-75
2024/04/07 09:31:03;;;;;;;;;;;;;;;16.72;100.00;101390.03;4949930;28;1320;-76
2024/04/07 09:33:29;;;;;;;;;;;;;;;16.71;100.00;101394.63;4950438;28;1571;-77
2024/04/07 09:35:55;;;;;;;;;;;;;;;16.68;100.00;101387.78;4967839;28;1562;-78
2024/04/07 09:38:20;;;;;;;;;;;;;;;16.63;100.00;101389.63;4951388;28;1386;-75
2024/04/07 09:40:46;;;;;;;;;;;;;;;16.59;100.00;101402.00;4961052;28;1519;-76
2024/04/07 09:43:11;;;;;;;;;;;;;;;16.58;100.00;101400.34;4968731;28;1527;-76
2024/04/07 09:45:37;;;;;;;;;;;;;;;16.53;100.00;101401.06;4966830;28;1934;-75
2024/04/07 09:48:02;;;;;;;;;;;;;;;16.57;100.00;101404.94;4958971;28;1594;-74
2024/04/07 09:50:40;;;;;;;;;;;;;;;16.52;100.00;101397.56;4950563;28;1297;-76
2024/04/07 09:53:12;;;;;;;;;;;;;;;16.59;100.00;101402.81;4969397;28;1406;-75
2024/04/07 09:55:37;;;;;;;;;;;;;;;16.68;100.00;101398.63;4964572;28;1362;-74
2024/04/07 09:58:03;;;;;;;;;;;;;;;16.77;100.00;101400.94;4951529;28;1184;-74
2024/04/07 10:00:28;;;;;;;;;;;;;;;16.81;100.00;101407.53;4950007;28;1311;-74
2024/04/07 10:02:54;;;;;;;;;;;;;;;16.83;100.00;101398.06;4951657;28;1271;-74
2024/04/07 10:05:19;;;;;;;;;;;;;;;16.93;100.00;101404.78;4954942;28;1902;-75
2024/04/07 10:07:44;;;;;;;;;;;;;;;16.92;100.00;101405.84;4953630;28;1090;-75
2024/04/07 10:10:10;;;;;;;;;;;;;;;16.93;100.00;101404.78;4949889;28;1256;-75
2024/04/07 10:12:35;;;;;;;;;;;;;;;17.00;100.00;101408.16;4968127;28;1251;-75
2024/04/07 10:15:00;;;;;;;;;;;;;;;17.01;100.00;101409.78;4984081;28;1379;-74
2024/04/07 10:17:26;;;;;;;;;;;;;;;17.07;100.00;101406.06;4964063;28;1211;-75
2024/04/07 10:19:53;;;;;;;;;;;;;;;17.07;100.00;101406.06;4963000;28;1538;-75
2024/04/07 10:22:19;;;;;;;;;;;;;;;17.05;100.00;101395.47;4952390;28;1340;-76
2024/04/07 10:24:47;;;;;;;;;;;;;;;17.07;100.00;101407.97;4969053;28;1973;-75
2024/04/07 10:27:13;;;;;;;;;;;;;;;17.09;100.00;101400.41;4953096;28;1678;-77
2024/04/07 10:29:39;;;;;;;;;;;;;;;17.05;100.00;101395.47;4952570;28;1209;-77
2024/04/07 10:32:15;;;;;;;;;;;;;;;17.07;100.00;101403.38;4968557;28;1485;-76
2024/04/07 10:34:54;;;;;;;;;;;;;;;17.03;100.00;101394.94;4968847;28;1099;-75
2024/04/07 10:37:23;;;;;;;;;;;;;;;17.04;100.00;101390.31;4981497;28;1202;-75
2024/04/07 10:39:49;;;;;;;;;;;;;;;17.08;100.00;101393.38;4975553;28;1331;-75
2024/04/07 10:42:15;;;;;;;;;;;;;;;17.07;100.00;101387.13;4971095;28;1188;-75
2024/04/07 10:44:41;;;;;;;;;;;;;;;17.08;100.00;101382.53;4971714;28;1914;-76
2024/04/07 10:47:07;;;;;;;;;;;;;;;17.08;100.00;101387.94;4971688;28;1387;-75
2024/04/07 10:49:32;;;;;;;;;;;;;;;17.09;100.00;101385.00;4984346;28;1853;-75
2024/04/07 10:51:57;;;;;;;;;;;;;;;17.12;100.00;101378.28;4984440;28;1625;-75
2024/04/07 10:54:22;;;;;;;;;;;;;;;17.13;100.00;101393.44;4988404;28;1172;-78
2024/04/07 10:56:48;;;;;;;;;;;;;;;17.13;100.00;101385.31;4990824;28;1212;-73
2024/04/07 10:59:13;;;;;;;;;;;;;;;17.15;100.00;101397.56;4965164;28;1305;-74
2024/04/07 11:01:38;;;;;;;;;;;;;;;17.16;100.00;101380.22;4984220;28;1418;-74
2024/04/07 11:04:04;;;;;;;;;;;;;;;17.19;100.00;101389.72;4971906;28;1213;-74
2024/04/07 11:06:29;;;;;;;;;;;;;;;17.17;100.00;101395.41;4969462;28;1977;-75
2024/04/07 11:08:54;;;;;;;;;;;;;;;17.15;100.00;101388.63;4967066;28;1324;-75
2024/04/07 11:11:24;;;;;;;;;;;;;;;17.13;100.00;101388.84;4982722;28;1210;-74
2024/04/07 11:13:51;;;;;;;;;;;;;;;17.12;100.00;101384.50;5014214;28;1244;-74
2024/04/07 11:16:17;;;;;;;;;;;;;;;17.16;100.00;101391.06;4984784;28;1156;-74
2024/04/07 11:18:42;;;;;;;;;;;;;;;17.16;100.00;101382.94;4988180;28;1273;-74
2024/04/07 11:21:07;;;;;;;;;;;;;;;17.16;100.00;101392.94;4978544;28;1181;-74
2024/04/07 11:23:33;;;;;;;;;;;;;;;17.16;100.00;101388.38;4972139;28;1073;-74
2024/04/07 11:25:58;;;;;;;;;;;;;;;17.19;100.00;101389.72;4971310;28;1906;-74
2024/04/07 11:28:24;;;;;;;;;;;;;;;17.20;100.00;101385.97;4987005;28;1180;-74
2024/04/07 11:30:50;;;;;;;;;;;;;;;17.22;100.00;101397.38;4972360;28;1187;-74
2024/04/07 11:33:15;;;;;;;;;;;;;;;17.23;100.00;101391.72;5004584;28;1221;-74
2024/04/07 11:35:40;;;;;;;;;;;;;;;17.24;100.00;101395.25;4966285;28;1273;-75
2024/04/07 11:38:06;;;;;;;;;;;;;;;17.27;100.00;101370.34;4952527;28;1290;-74
2024/04/07 11:40:31;;;;;;;;;;;;;;;17.27;100.00;101383.09;4967238;28;1384;-75
2024/04/07 11:42:57;;;;;;;;;;;;;;;17.28;100.00;101376.59;4971500;28;1292;-74
2024/04/07 11:45:22;;;;;;;;;;;;;;;17.28;100.00;101382.84;4971348;28;1898;-74
2024/04/07 11:47:47;;;;;;;;;;;;;;;17.33;100.00;101374.78;4971867;28;1478;-73
2024/04/07 11:50:12;;;;;;;;;;;;;;;17.35;100.00;101369.94;4971569;28;1407;-73
2024/04/07 11:52:38;;;;;;;;;;;;;;;17.36;100.00;101374.28;4967464;28;1310;-74
2024/04/07 11:55:03;;;;;;;;;;;;;;;17.54;100.00;101375.88;4987050;28;1407;-78
2024/04/07 11:57:29;;;;;;;;;;;;;;;17.36;100.00;101378.88;4972286;28;1291;-77
2024/04/07 11:59:54;;;;;;;;;;;;;;;17.30;100.00;101390.72;4980372;28;1292;-75
2024/04/07 12:02:20;;;;;;;;;;;;;;;17.26;100.00;101384.97;4986085;28;1290;-78
2024/04/07 12:04:45;;;;;;;;;;;;;;;17.04;100.00;101374.06;4981922;28;1902;-77
2024/04/07 12:07:10;;;;;;;;;;;;;;;17.18;100.00;101378.09;4985708;28;1035;-81
2024/04/07 12:09:36;;;;;;;;;;;;;;;17.31;100.00;101392.34;4970760;28;1197;-78
2024/04/07 12:12:02;;;;;;;;;;;;;;;17.50;100.00;101393.75;4974001;28;1318;-80
2024/04/07 12:14:28;;;;;;;;;;;;;;;17.52;100.00;101393.50;4984208;28;1113;-80
2024/04/07 12:16:53;;;;;;;;;;;;;;;17.55;100.00;101384.84;4971030;28;1290;-79
2024/04/07 12:19:19;;;;;;;;;;;;;;;17.69;100.00;101372.56;4974650;28;1338;-81
2024/04/07 12:21:44;;;;;;;;;;;;;;;17.63;100.00;101373.56;4989856;28;1218;-80
2024/04/07 12:24:09;;;;;;;;;;;;;;;17.68;100.00;101379.06;4965165;28;1406;-83
2024/04/07 12:26:35;;;;;;;;;;;;;;;16.82;100.00;101373.94;4971134;28;2272;-77
2024/04/07 12:29:00;;;;;;;;;;;;;;;16.71;100.00;101370.25;4967272;28;1302;-77
2024/04/07 12:31:25;;;;;;;;;;;;;;;16.69;100.00;101366.97;4952338;28;1548;-79
2024/04/07 12:33:51;;;;;;;;;;;;;;;16.75;100.00;101376.81;4987681;28;1205;-78
2024/04/07 12:36:16;;;;;;;;;;;;;;;16.77;100.00;101363.84;4975852;28;1226;-80